Fort Barnwell, North Carolina
Current Conditions -  °F | °C
As of 8:56 AM on Monday 26 Jan 2015 (Local Time) from KISO Reporting Station
Haze Haze  
Wind Chill: 35°   Ceiling: Unl
Heat Index: 39°   Visibility: 5mi
Dew Point: 39°   Wind: 6mph
Humidity: 100%   Direction: 360°N
Pressure: 29.67"   Gusts: NA
Location:  35.2736°N, 77.3791°W
Report Text: KISO 261356Z 36005KT 5SM BR CLR 04/04 A2967 RMK AO2
Loading
Personal Weather Stations






























Interactive Weather Map New forecast layout! Learn more

10-Day Weather Forecast

Advertisements
Track Severe Weather on mobile